IPG2511 KBNA-KLIT
Flight info
| Callsign | IPG2511 |
|---|---|
| Flight time | N/A |
| Altitude | 24000 |
| Route | DANLS4 TPEEE LIT |
| Aircraft | SF50/L-SDGRWY/L |
Departure
| Time | 2026-05-08 04:40 |
|---|---|
| Airport | Nashville International Airport (KBNA) |
Arrival
| Time | N/A |
|---|---|
| Airport | Bill & Hillary Clinton National Airport/Adams Field (KLIT) |
| Time | Latitude | Longitude | Altitude | Speed | Heading |
|---|---|---|---|---|---|
| 2026-05-08 04:15 | 36.13305 | -86.67266 | 566 ft | 0 kts | 118° |
| 2026-05-08 04:26 | 36.13307 | -86.67270 | 563 ft | 3 kts | 118° |
| 2026-05-08 04:26 | 36.13316 | -86.67291 | 569 ft | 3 kts | 118° |
| 2026-05-08 04:27 | 36.13325 | -86.67312 | 563 ft | 3 kts | 118° |
| 2026-05-08 04:27 | 36.13334 | -86.67331 | 561 ft | 2 kts | 160° |
| 2026-05-08 04:27 | 36.13337 | -86.67330 | 565 ft | 0 kts | 203° |
| 2026-05-08 04:29 | 36.13321 | -86.67344 | 561 ft | 7 kts | 201° |
| 2026-05-08 04:29 | 36.13268 | -86.67360 | 564 ft | 9 kts | 185° |
| 2026-05-08 04:29 | 36.13195 | -86.67366 | 563 ft | 11 kts | 182° |
| 2026-05-08 04:29 | 36.13115 | -86.67377 | 558 ft | 12 kts | 179° |
| 2026-05-08 04:30 | 36.13041 | -86.67371 | 559 ft | 10 kts | 162° |
| 2026-05-08 04:30 | 36.12990 | -86.67341 | 561 ft | 6 kts | 149° |
| 2026-05-08 04:30 | 36.12963 | -86.67316 | 561 ft | 3 kts | 136° |
| 2026-05-08 04:30 | 36.12941 | -86.67293 | 561 ft | 7 kts | 143° |
| 2026-05-08 04:31 | 36.12884 | -86.67267 | 565 ft | 11 kts | 188° |
| 2026-05-08 04:31 | 36.12812 | -86.67323 | 562 ft | 13 kts | 220° |
| 2026-05-08 04:31 | 36.12752 | -86.67391 | 563 ft | 11 kts | 224° |
| 2026-05-08 04:31 | 36.12737 | -86.67409 | 564 ft | 5 kts | 220° |
| 2026-05-08 04:32 | 36.12670 | -86.67462 | 565 ft | 15 kts | 208° |
| 2026-05-08 04:32 | 36.12564 | -86.67549 | 571 ft | 16 kts | 227° |
| 2026-05-08 04:32 | 36.12499 | -86.67629 | 572 ft | 11 kts | 232° |
| 2026-05-08 04:32 | 36.12504 | -86.67707 | 568 ft | 11 kts | 315° |
| 2026-05-08 04:33 | 36.12555 | -86.67774 | 570 ft | 10 kts | 312° |
| 2026-05-08 04:33 | 36.12604 | -86.67837 | 567 ft | 11 kts | 313° |
| 2026-05-08 04:33 | 36.12657 | -86.67907 | 567 ft | 12 kts | 314° |
| 2026-05-08 04:33 | 36.12718 | -86.67987 | 571 ft | 13 kts | 317° |
| 2026-05-08 04:34 | 36.12726 | -86.67996 | 572 ft | 0 kts | 314° |
| 2026-05-08 04:34 | 36.12730 | -86.68002 | 571 ft | 5 kts | 313° |
| 2026-05-08 04:34 | 36.12737 | -86.68075 | 576 ft | 15 kts | 223° |
| 2026-05-08 04:34 | 36.12600 | -86.68130 | 567 ft | 26 kts | 196° |
| 2026-05-08 04:35 | 36.12410 | -86.68198 | 574 ft | 29 kts | 197° |
| 2026-05-08 04:35 | 36.12241 | -86.68258 | 571 ft | 21 kts | 197° |
| 2026-05-08 04:35 | 36.12122 | -86.68301 | 574 ft | 15 kts | 195° |
| 2026-05-08 04:35 | 36.12042 | -86.68328 | 575 ft | 9 kts | 195° |
| 2026-05-08 04:36 | 36.11995 | -86.68346 | 577 ft | 5 kts | 197° |
| 2026-05-08 04:36 | 36.11972 | -86.68355 | 579 ft | 4 kts | 197° |
| 2026-05-08 04:36 | 36.11924 | -86.68371 | 581 ft | 11 kts | 195° |
| 2026-05-08 04:36 | 36.11835 | -86.68403 | 586 ft | 14 kts | 194° |
| 2026-05-08 04:37 | 36.11787 | -86.68420 | 587 ft | 0 kts | 196° |
| 2026-05-08 04:37 | 36.11750 | -86.68439 | 588 ft | 12 kts | 226° |
| 2026-05-08 04:37 | 36.11739 | -86.68467 | 592 ft | 0 kts | 261° |
| 2026-05-08 04:37 | 36.11750 | -86.68532 | 597 ft | 2 kts | 288° |
| 2026-05-08 04:38 | 36.11750 | -86.68533 | 597 ft | 0 kts | 288° |
| 2026-05-08 04:39 | 36.11764 | -86.68585 | 599 ft | 11 kts | 289° |
| 2026-05-08 04:39 | 36.11819 | -86.68629 | 597 ft | 13 kts | 11° |
| 2026-05-08 04:39 | 36.11950 | -86.68578 | 594 ft | 42 kts | 18° |
| 2026-05-08 04:39 | 36.12508 | -86.68361 | 590 ft | 121 kts | 17° |
| 2026-05-08 04:40 | 36.13447 | -86.67981 | 739 ft | 161 kts | 18° |
| 2026-05-08 04:40 | 36.14599 | -86.67509 | 893 ft | 182 kts | 20° |
| 2026-05-08 04:40 | 36.15780 | -86.66948 | 1318 ft | 181 kts | 20° |
| 2026-05-08 04:40 | 36.16973 | -86.66380 | 1644 ft | 186 kts | 22° |
| 2026-05-08 04:41 | 36.18169 | -86.65773 | 1948 ft | 187 kts | 23° |
| 2026-05-08 04:41 | 36.19440 | -86.65383 | 1891 ft | 191 kts | 1° |
| 2026-05-08 04:41 | 36.20625 | -86.65563 | 1982 ft | 164 kts | 349° |
| 2026-05-08 04:41 | 36.21658 | -86.65890 | 2331 ft | 149 kts | 345° |
| 2026-05-08 04:42 | 36.22622 | -86.66155 | 2739 ft | 132 kts | 354° |
| 2026-05-08 04:42 | 36.23585 | -86.66113 | 2697 ft | 156 kts | 9° |
| 2026-05-08 04:42 | 36.24608 | -86.65709 | 2897 ft | 151 kts | 18° |
| 2026-05-08 04:42 | 36.25572 | -86.65915 | 3163 ft | 142 kts | 317° |
| 2026-05-08 04:43 | 36.26118 | -86.66863 | 3537 ft | 131 kts | 302° |
| 2026-05-08 04:43 | 36.26625 | -86.67761 | 3902 ft | 124 kts | 307° |
| 2026-05-08 04:43 | 36.27137 | -86.68583 | 4269 ft | 117 kts | 308° |
| 2026-05-08 04:43 | 36.27638 | -86.69359 | 4626 ft | 119 kts | 309° |
| 2026-05-08 04:44 | 36.28203 | -86.70232 | 4974 ft | 142 kts | 310° |
| 2026-05-08 04:44 | 36.28831 | -86.71302 | 5262 ft | 165 kts | 297° |
| 2026-05-08 04:44 | 36.29036 | -86.72787 | 5519 ft | 187 kts | 270° |
| 2026-05-08 04:44 | 36.28789 | -86.74435 | 5789 ft | 201 kts | 260° |
| 2026-05-08 04:45 | 36.28500 | -86.76181 | 6058 ft | 212 kts | 262° |
| 2026-05-08 04:45 | 36.28217 | -86.78007 | 6323 ft | 219 kts | 262° |
| 2026-05-08 04:45 | 36.27920 | -86.79886 | 6578 ft | 225 kts | 262° |
| 2026-05-08 04:45 | 36.27619 | -86.81802 | 6823 ft | 228 kts | 262° |
| 2026-05-08 04:46 | 36.27302 | -86.83739 | 6967 ft | 234 kts | 259° |
| 2026-05-08 04:46 | 36.26645 | -86.85599 | 6966 ft | 245 kts | 243° |
| 2026-05-08 04:46 | 36.25773 | -86.87435 | 6973 ft | 249 kts | 243° |
| 2026-05-08 04:46 | 36.24919 | -86.89317 | 6972 ft | 252 kts | 244° |
| 2026-05-08 04:47 | 36.24038 | -86.91251 | 6981 ft | 262 kts | 243° |
| 2026-05-08 04:47 | 36.23129 | -86.93227 | 6980 ft | 266 kts | 243° |
| 2026-05-08 04:47 | 36.22208 | -86.95224 | 6977 ft | 268 kts | 243° |
| 2026-05-08 04:47 | 36.21283 | -86.97231 | 6980 ft | 269 kts | 243° |
| 2026-05-08 04:48 | 36.20358 | -86.99237 | 7093 ft | 265 kts | 243° |
| 2026-05-08 04:48 | 36.19462 | -87.01181 | 7433 ft | 255 kts | 243° |
| 2026-05-08 04:48 | 36.18590 | -87.03067 | 7803 ft | 250 kts | 243° |
| 2026-05-08 04:48 | 36.17740 | -87.04917 | 8176 ft | 245 kts | 244° |
| 2026-05-08 04:49 | 36.16896 | -87.06740 | 8556 ft | 243 kts | 244° |
| 2026-05-08 04:49 | 36.16060 | -87.08545 | 8941 ft | 241 kts | 244° |
| 2026-05-08 04:49 | 36.15235 | -87.10338 | 9333 ft | 239 kts | 244° |
| 2026-05-08 04:49 | 36.14413 | -87.12118 | 9728 ft | 237 kts | 245° |
| 2026-05-08 04:50 | 36.13593 | -87.13883 | 10114 ft | 236 kts | 245° |
| 2026-05-08 04:50 | 36.12783 | -87.15636 | 10464 ft | 234 kts | 245° |
| 2026-05-08 04:50 | 36.11979 | -87.17374 | 10822 ft | 232 kts | 245° |
| 2026-05-08 04:50 | 36.11180 | -87.19093 | 11195 ft | 229 kts | 245° |
| 2026-05-08 04:51 | 36.10394 | -87.20795 | 11555 ft | 226 kts | 246° |
| 2026-05-08 04:51 | 36.09788 | -87.22545 | 11921 ft | 218 kts | 258° |
| 2026-05-08 04:51 | 36.09431 | -87.24346 | 12295 ft | 214 kts | 261° |
| 2026-05-08 04:51 | 36.09071 | -87.26121 | 12677 ft | 212 kts | 260° |
| 2026-05-08 04:52 | 36.08715 | -87.27877 | 13060 ft | 209 kts | 261° |
| 2026-05-08 04:52 | 36.08366 | -87.29611 | 13449 ft | 207 kts | 261° |
| 2026-05-08 04:52 | 36.08022 | -87.31323 | 13841 ft | 204 kts | 261° |
| 2026-05-08 04:52 | 36.07683 | -87.33010 | 14188 ft | 201 kts | 261° |
| 2026-05-08 04:53 | 36.07346 | -87.34677 | 14533 ft | 199 kts | 261° |
| 2026-05-08 04:53 | 36.07014 | -87.36331 | 14887 ft | 197 kts | 261° |
| 2026-05-08 04:53 | 36.06683 | -87.37971 | 15244 ft | 196 kts | 261° |
| 2026-05-08 04:53 | 36.06355 | -87.39598 | 15606 ft | 195 kts | 261° |
| 2026-05-08 04:54 | 36.06032 | -87.41193 | 15969 ft | 193 kts | 261° |
| 2026-05-08 04:54 | 36.05710 | -87.42796 | 16340 ft | 192 kts | 261° |
| 2026-05-08 04:54 | 36.05383 | -87.44418 | 16514 ft | 199 kts | 260° |
| 2026-05-08 04:54 | 36.05042 | -87.46098 | 16644 ft | 204 kts | 260° |
| 2026-05-08 04:55 | 36.04694 | -87.47812 | 16773 ft | 207 kts | 260° |
| 2026-05-08 04:55 | 36.04342 | -87.49547 | 16901 ft | 209 kts | 260° |
| 2026-05-08 04:55 | 36.03988 | -87.51294 | 17031 ft | 210 kts | 260° |
| 2026-05-08 04:55 | 36.03632 | -87.53045 | 17159 ft | 211 kts | 260° |
| 2026-05-08 04:56 | 36.03274 | -87.54801 | 17287 ft | 211 kts | 260° |
| 2026-05-08 04:56 | 36.02918 | -87.56556 | 17424 ft | 211 kts | 260° |
| 2026-05-08 04:56 | 36.02560 | -87.58313 | 17545 ft | 211 kts | 260° |
| 2026-05-08 04:56 | 36.02203 | -87.60068 | 17676 ft | 211 kts | 260° |
| 2026-05-08 04:57 | 36.01844 | -87.61821 | 17809 ft | 211 kts | 260° |
| 2026-05-08 04:57 | 36.01487 | -87.63578 | 17939 ft | 211 kts | 260° |
| 2026-05-08 04:57 | 36.01127 | -87.65333 | 18072 ft | 211 kts | 259° |
| 2026-05-08 04:57 | 36.00768 | -87.67086 | 18205 ft | 211 kts | 259° |
| 2026-05-08 04:58 | 36.00412 | -87.68839 | 18327 ft | 210 kts | 260° |
| 2026-05-08 04:58 | 36.00054 | -87.70588 | 18456 ft | 210 kts | 259° |
| 2026-05-08 04:58 | 35.99695 | -87.72338 | 18564 ft | 210 kts | 259° |
| 2026-05-08 04:58 | 35.99334 | -87.74088 | 18677 ft | 210 kts | 259° |
| 2026-05-08 04:59 | 35.98976 | -87.75840 | 18794 ft | 211 kts | 259° |
| 2026-05-08 04:59 | 35.98616 | -87.77594 | 18909 ft | 211 kts | 259° |
| 2026-05-08 04:59 | 35.98255 | -87.79346 | 19025 ft | 210 kts | 259° |
| 2026-05-08 04:59 | 35.97894 | -87.81097 | 19142 ft | 211 kts | 259° |
| 2026-05-08 05:00 | 35.97535 | -87.82851 | 19258 ft | 211 kts | 259° |
| 2026-05-08 05:00 | 35.97172 | -87.84604 | 19375 ft | 211 kts | 259° |
| 2026-05-08 05:00 | 35.96812 | -87.86356 | 19494 ft | 211 kts | 259° |
| 2026-05-08 05:00 | 35.96449 | -87.88107 | 19612 ft | 210 kts | 259° |